KSGJ

Northeast Florida Regional Airport

Airport
ICAO code
KSGJ
Summary
ICAO Region
NAM
ICAO Territory
Location

St. Augustine, Florida,

Coordinates
29° 57' 31" N , 81° 20' 20" W
KCC
Metar
KSGJ 300956Z AUTO 00000KT 10SM CLR 21/18 A3004 RMK AO2 SLP173 T02060178 PNO $

Description

Northeast Florida Regional Airport, formerly St. Augustine Airport, is a public airport located 6 km north of the central business district of St. Augustine, in St. Johns County, Florida.

Climatology

Humid “subtropical” climate (Köppen climate classification Cfa) - characterized by hot, humid summers and cool winters. Significant amounts of precipitation occur in all seasons in most areas.

Runways

Designator Length Width Surface Rops
2/20 797 23 ASP Yes/Yes
6/24 823 18 ASP Yes/Yes
16/34 1220 46 ASP No/No
12W/30W 1524 305 WATER No/No
13/31 2437 46 ASP Yes/Yes
17W/35W 3658 305 WATER No/No
18W/36W 3658 152 WATER No/No

Airport map

Aerial View

SKYbrary Partners:

Safety knowledge contributed by: